sensor_id;sensor_type;location;lat;lon;timestamp;pressure;altitude;pressure_sealevel;temperature;humidity
69153;BME280;56261;51.580;4.578;2023-08-24T00:00:41;101924.34;;;17.84;100.00
69153;BME280;56261;51.580;4.578;2023-08-24T00:03:07;101920.47;;;17.94;100.00
69153;BME280;56261;51.580;4.578;2023-08-24T00:05:34;101926.34;;;17.97;100.00
69153;BME280;56261;51.580;4.578;2023-08-24T00:08:03;101919.72;;;18.00;100.00
69153;BME280;56261;51.580;4.578;2023-08-24T00:10:28;101921.00;;;18.04;100.00
69153;BME280;56261;51.580;4.578;2023-08-24T00:12:54;101918.50;;;18.02;100.00
69153;BME280;56261;51.580;4.578;2023-08-24T00:15:19;101917.09;;;18.07;100.00
69153;BME280;56261;51.580;4.578;2023-08-24T00:17:45;101912.69;;;18.05;100.00
69153;BME280;56261;51.580;4.578;2023-08-24T00:20:10;101903.31;;;18.01;100.00
69153;BME280;56261;51.580;4.578;2023-08-24T00:22:37;101903.13;;;18.03;100.00
69153;BME280;56261;51.580;4.578;2023-08-24T00:25:03;101907.31;;;18.05;100.00
69153;BME280;56261;51.580;4.578;2023-08-24T00:27:30;101912.97;;;18.11;100.00
69153;BME280;56261;51.580;4.578;2023-08-24T00:29:55;101911.09;;;18.11;100.00
69153;BME280;56261;51.580;4.578;2023-08-24T00:32:22;101914.25;;;18.15;100.00
69153;BME280;56261;51.580;4.578;2023-08-24T00:34:47;101901.84;;;18.20;100.00
69153;BME280;56261;51.580;4.578;2023-08-24T00:37:13;101897.09;;;18.22;100.00
69153;BME280;56261;51.580;4.578;2023-08-24T00:39:38;101891.47;;;18.24;100.00
69153;BME280;56261;51.580;4.578;2023-08-24T00:42:04;101890.28;;;18.27;100.00
69153;BME280;56261;51.580;4.578;2023-08-24T00:44:30;101892.09;;;18.26;100.00
69153;BME280;56261;51.580;4.578;2023-08-24T00:46:57;101886.91;;;18.24;100.00
69153;BME280;56261;51.580;4.578;2023-08-24T00:49:24;101894.88;;;18.33;100.00
69153;BME280;56261;51.580;4.578;2023-08-24T00:51:49;101886.63;;;18.41;100.00
69153;BME280;56261;51.580;4.578;2023-08-24T00:54:15;101884.66;;;18.28;100.00
69153;BME280;56261;51.580;4.578;2023-08-24T00:56:41;101896.31;;;18.29;100.00
69153;BME280;56261;51.580;4.578;2023-08-24T00:59:07;101889.28;;;18.34;100.00
69153;BME280;56261;51.580;4.578;2023-08-24T01:01:32;101894.97;;;18.46;100.00
69153;BME280;56261;51.580;4.578;2023-08-24T01:03:58;101887.13;;;18.51;100.00
69153;BME280;56261;51.580;4.578;2023-08-24T01:06:24;101882.47;;;18.38;100.00
69153;BME280;56261;51.580;4.578;2023-08-24T01:08:49;101888.88;;;18.37;100.00
69153;BME280;56261;51.580;4.578;2023-08-24T01:16:27;101887.78;;;18.53;100.00
69153;BME280;56261;51.580;4.578;2023-08-24T01:18:58;101877.56;;;18.55;100.00
69153;BME280;56261;51.580;4.578;2023-08-24T01:21:28;101878.44;;;18.56;100.00
69153;BME280;56261;51.580;4.578;2023-08-24T01:24:18;101877.78;;;18.54;100.00
69153;BME280;56261;51.580;4.578;2023-08-24T01:26:52;101873.03;;;18.56;100.00
69153;BME280;56261;51.580;4.578;2023-08-24T01:29:20;101881.56;;;18.59;100.00
69153;BME280;56261;51.580;4.578;2023-08-24T01:31:48;101890.13;;;18.63;100.00
69153;BME280;56261;51.580;4.578;2023-08-24T01:34:14;101889.53;;;18.67;100.00
69153;BME280;56261;51.580;4.578;2023-08-24T01:36:40;101886.38;;;18.64;100.00
69153;BME280;56261;51.580;4.578;2023-08-24T01:39:12;101865.19;;;18.67;100.00
69153;BME280;56261;51.580;4.578;2023-08-24T01:41:41;101850.81;;;18.60;100.00
69153;BME280;56261;51.580;4.578;2023-08-24T01:44:13;101862.88;;;18.58;100.00
69153;BME280;56261;51.580;4.578;2023-08-24T01:46:42;101874.50;;;18.58;100.00
69153;BME280;56261;51.580;4.578;2023-08-24T01:49:10;101872.03;;;18.63;100.00
69153;BME280;56261;51.580;4.578;2023-08-24T01:51:36;101892.59;;;18.58;100.00
69153;BME280;56261;51.580;4.578;2023-08-24T01:54:01;101897.09;;;18.51;100.00
69153;BME280;56261;51.580;4.578;2023-08-24T01:56:27;101887.78;;;18.53;100.00
69153;BME280;56261;51.580;4.578;2023-08-24T01:58:52;101872.97;;;18.49;100.00
69153;BME280;56261;51.580;4.578;2023-08-24T02:01:17;101861.88;;;18.37;100.00
69153;BME280;56261;51.580;4.578;2023-08-24T02:03:43;101848.16;;;18.39;100.00
69153;BME280;56261;51.580;4.578;2023-08-24T02:06:08;101855.63;;;18.37;100.00
69153;BME280;56261;51.580;4.578;2023-08-24T02:08:34;101837.91;;;18.28;100.00
69153;BME280;56261;51.580;4.578;2023-08-24T02:10:59;101815.63;;;18.19;100.00
69153;BME280;56261;51.580;4.578;2023-08-24T02:13:25;101785.56;;;18.00;100.00
69153;BME280;56261;51.580;4.578;2023-08-24T02:15:50;101778.06;;;17.96;100.00
69153;BME280;56261;51.580;4.578;2023-08-24T02:18:16;101760.00;;;17.96;100.00
69153;BME280;56261;51.580;4.578;2023-08-24T02:20:41;101765.00;;;17.99;100.00
69153;BME280;56261;51.580;4.578;2023-08-24T02:23:06;101763.16;;;18.00;100.00
69153;BME280;56261;51.580;4.578;2023-08-24T02:25:32;101745.84;;;17.94;100.00
69153;BME280;56261;51.580;4.578;2023-08-24T02:27:58;101749.19;;;17.96;100.00
69153;BME280;56261;51.580;4.578;2023-08-24T02:30:24;101739.69;;;18.00;100.00
69153;BME280;56261;51.580;4.578;2023-08-24T02:32:50;101721.78;;;17.99;100.00
69153;BME280;56261;51.580;4.578;2023-08-24T02:35:16;101700.41;;;17.98;100.00
69153;BME280;56261;51.580;4.578;2023-08-24T02:37:41;101691.63;;;17.89;100.00
69153;BME280;56261;51.580;4.578;2023-08-24T02:40:07;101696.41;;;17.87;100.00
69153;BME280;56261;51.580;4.578;2023-08-24T02:42:34;101705.91;;;17.83;100.00
69153;BME280;56261;51.580;4.578;2023-08-24T02:45:00;101713.19;;;17.82;100.00
69153;BME280;56261;51.580;4.578;2023-08-24T02:47:25;101729.75;;;17.79;100.00
69153;BME280;56261;51.580;4.578;2023-08-24T02:49:51;101741.56;;;17.78;100.00
69153;BME280;56261;51.580;4.578;2023-08-24T02:52:17;101751.00;;;17.89;100.00
69153;BME280;56261;51.580;4.578;2023-08-24T02:54:42;101748.91;;;17.84;100.00
69153;BME280;56261;51.580;4.578;2023-08-24T02:57:08;101744.34;;;17.85;100.00
69153;BME280;56261;51.580;4.578;2023-08-24T02:59:33;101739.22;;;17.97;100.00
69153;BME280;56261;51.580;4.578;2023-08-24T03:01:58;101733.59;;;17.92;100.00
69153;BME280;56261;51.580;4.578;2023-08-24T03:04:24;101726.31;;;17.92;100.00
69153;BME280;56261;51.580;4.578;2023-08-24T03:06:49;101716.75;;;17.90;100.00
69153;BME280;56261;51.580;4.578;2023-08-24T03:09:15;101707.19;;;17.87;100.00
69153;BME280;56261;51.580;4.578;2023-08-24T03:11:42;101693.06;;;17.85;100.00
69153;BME280;56261;51.580;4.578;2023-08-24T03:14:07;101715.97;;;17.96;100.00
69153;BME280;56261;51.580;4.578;2023-08-24T03:16:33;101722.16;;;17.90;100.00
69153;BME280;56261;51.580;4.578;2023-08-24T03:18:59;101729.25;;;17.91;100.00
69153;BME280;56261;51.580;4.578;2023-08-24T03:21:24;101727.50;;;17.83;100.00
69153;BME280;56261;51.580;4.578;2023-08-24T03:23:49;101740.16;;;17.82;100.00
69153;BME280;56261;51.580;4.578;2023-08-24T03:26:15;101727.88;;;17.80;100.00
69153;BME280;56261;51.580;4.578;2023-08-24T03:28:42;101729.41;;;17.89;100.00
69153;BME280;56261;51.580;4.578;2023-08-24T03:31:07;101719.50;;;17.96;100.00
69153;BME280;56261;51.580;4.578;2023-08-24T03:33:33;101715.97;;;17.96;100.00
69153;BME280;56261;51.580;4.578;2023-08-24T03:36:00;101715.34;;;17.94;100.00
69153;BME280;56261;51.580;4.578;2023-08-24T03:38:25;101708.84;;;17.88;100.00
69153;BME280;56261;51.580;4.578;2023-08-24T03:40:51;101704.91;;;17.84;100.00
69153;BME280;56261;51.580;4.578;2023-08-24T03:43:17;101705.72;;;17.84;100.00
69153;BME280;56261;51.580;4.578;2023-08-24T03:45:42;101699.84;;;17.81;100.00
69153;BME280;56261;51.580;4.578;2023-08-24T03:48:08;101696.72;;;17.77;100.00
69153;BME280;56261;51.580;4.578;2023-08-24T03:50:34;101697.16;;;17.81;100.00
69153;BME280;56261;51.580;4.578;2023-08-24T03:52:59;101698.00;;;17.81;100.00
69153;BME280;56261;51.580;4.578;2023-08-24T03:55:25;101691.59;;;17.82;100.00
69153;BME280;56261;51.580;4.578;2023-08-24T03:57:50;101686.84;;;17.84;100.00
69153;BME280;56261;51.580;4.578;2023-08-24T04:00:16;101684.56;;;17.88;100.00
69153;BME280;56261;51.580;4.578;2023-08-24T04:02:42;101692.03;;;17.86;100.00
69153;BME280;56261;51.580;4.578;2023-08-24T04:05:07;101689.72;;;17.83;100.00
69153;BME280;56261;51.580;4.578;2023-08-24T04:07:33;101691.00;;;17.87;100.00
69153;BME280;56261;51.580;4.578;2023-08-24T04:10:02;101692.66;;;17.88;100.00
69153;BME280;56261;51.580;4.578;2023-08-24T04:12:28;101695.13;;;17.83;100.00
69153;BME280;56261;51.580;4.578;2023-08-24T04:14:54;101701.56;;;17.82;100.00
69153;BME280;56261;51.580;4.578;2023-08-24T04:17:19;101703.22;;;17.83;100.00
69153;BME280;56261;51.580;4.578;2023-08-24T04:19:44;101704.69;;;17.86;100.00
69153;BME280;56261;51.580;4.578;2023-08-24T04:22:10;101703.84;;;17.85;100.00
69153;BME280;56261;51.580;4.578;2023-08-24T04:24:35;101699.69;;;17.82;100.00
69153;BME280;56261;51.580;4.578;2023-08-24T04:27:00;101693.75;;;17.72;100.00
69153;BME280;56261;51.580;4.578;2023-08-24T04:29:26;101702.53;;;17.81;100.00
69153;BME280;56261;51.580;4.578;2023-08-24T04:31:52;101706.38;;;17.87;100.00
69153;BME280;56261;51.580;4.578;2023-08-24T04:34:17;101708.25;;;17.93;100.00
69153;BME280;56261;51.580;4.578;2023-08-24T04:36:42;101701.59;;;17.89;100.00
69153;BME280;56261;51.580;4.578;2023-08-24T04:39:08;101702.63;;;17.88;100.00
69153;BME280;56261;51.580;4.578;2023-08-24T04:41:33;101701.16;;;17.85;100.00
69153;BME280;56261;51.580;4.578;2023-08-24T04:43:58;101691.19;;;17.86;100.00
69153;BME280;56261;51.580;4.578;2023-08-24T04:46:24;101709.56;;;18.03;100.00
69153;BME280;56261;51.580;4.578;2023-08-24T04:48:49;101698.63;;;18.12;100.00
69153;BME280;56261;51.580;4.578;2023-08-24T04:51:14;101690.94;;;18.09;100.00
69153;BME280;56261;51.580;4.578;2023-08-24T04:53:40;101691.09;;;18.00;100.00
69153;BME280;56261;51.580;4.578;2023-08-24T04:56:05;101683.00;;;18.00;100.00
69153;BME280;56261;51.580;4.578;2023-08-24T04:58:33;101674.84;;;17.94;100.00
69153;BME280;56261;51.580;4.578;2023-08-24T05:00:58;101677.31;;;17.89;100.00
69153;BME280;56261;51.580;4.578;2023-08-24T05:03:24;101669.59;;;17.86;100.00
69153;BME280;56261;51.580;4.578;2023-08-24T05:05:49;101673.72;;;17.81;100.00
69153;BME280;56261;51.580;4.578;2023-08-24T05:08:14;101666.19;;;17.77;100.00
69153;BME280;56261;51.580;4.578;2023-08-24T05:10:40;101662.72;;;17.83;100.00
69153;BME280;56261;51.580;4.578;2023-08-24T05:13:06;101663.78;;;17.82;100.00
69153;BME280;56261;51.580;4.578;2023-08-24T05:15:31;101646.47;;;17.76;100.00
69153;BME280;56261;51.580;4.578;2023-08-24T05:17:56;101651.16;;;17.89;100.00
69153;BME280;56261;51.580;4.578;2023-08-24T05:20:27;101653.03;;;17.89;100.00
69153;BME280;56261;51.580;4.578;2023-08-24T05:22:53;101650.75;;;17.92;100.00
69153;BME280;56261;51.580;4.578;2023-08-24T05:25:20;101643.91;;;17.96;100.00
69153;BME280;56261;51.580;4.578;2023-08-24T05:27:46;101634.59;;;17.99;100.00
69153;BME280;56261;51.580;4.578;2023-08-24T05:30:12;101628.13;;;17.93;100.00
69153;BME280;56261;51.580;4.578;2023-08-24T05:32:37;101635.19;;;17.94;100.00
69153;BME280;56261;51.580;4.578;2023-08-24T05:35:07;101636.91;;;18.02;100.00
69153;BME280;56261;51.580;4.578;2023-08-24T05:37:33;101628.81;;;18.02;100.00
69153;BME280;56261;51.580;4.578;2023-08-24T05:39:59;101625.09;;;18.10;100.00
69153;BME280;56261;51.580;4.578;2023-08-24T05:42:25;101621.97;;;18.13;100.00
69153;BME280;56261;51.580;4.578;2023-08-24T05:44:51;101612.91;;;18.20;100.00
69153;BME280;56261;51.580;4.578;2023-08-24T05:47:16;101611.88;;;18.28;100.00
69153;BME280;56261;51.580;4.578;2023-08-24T05:49:41;101607.75;;;18.39;100.00
69153;BME280;56261;51.580;4.578;2023-08-24T05:52:07;101619.22;;;18.48;100.00
69153;BME280;56261;51.580;4.578;2023-08-24T05:54:32;101606.38;;;18.56;100.00
69153;BME280;56261;51.580;4.578;2023-08-24T05:56:58;101604.94;;;18.67;100.00
69153;BME280;56261;51.580;4.578;2023-08-24T05:59:26;101589.00;;;18.92;100.00
69153;BME280;56261;51.580;4.578;2023-08-24T06:01:52;101585.88;;;19.28;100.00
69153;BME280;56261;51.580;4.578;2023-08-24T06:04:17;101577.09;;;19.73;100.00
69153;BME280;56261;51.580;4.578;2023-08-24T06:06:42;101572.47;;;19.87;100.00
69153;BME280;56261;51.580;4.578;2023-08-24T06:09:08;101567.88;;;19.94;100.00
69153;BME280;56261;51.580;4.578;2023-08-24T06:11:33;101575.25;;;20.25;100.00
69153;BME280;56261;51.580;4.578;2023-08-24T06:13:59;101564.66;;;20.49;100.00
69153;BME280;56261;51.580;4.578;2023-08-24T06:16:24;101579.47;;;20.08;100.00
69153;BME280;56261;51.580;4.578;2023-08-24T06:18:50;101580.84;;;20.30;100.00
69153;BME280;56261;51.580;4.578;2023-08-24T06:21:16;101570.06;;;20.17;100.00
69153;BME280;56261;51.580;4.578;2023-08-24T06:23:41;101571.34;;;20.46;100.00
69153;BME280;56261;51.580;4.578;2023-08-24T06:26:07;101586.31;;;20.56;100.00
69153;BME280;56261;51.580;4.578;2023-08-24T06:28:32;101583.91;;;20.79;100.00
69153;BME280;56261;51.580;4.578;2023-08-24T06:30:59;101580.66;;;21.21;100.00
69153;BME280;56261;51.580;4.578;2023-08-24T06:33:29;101579.81;;;21.20;100.00
69153;BME280;56261;51.580;4.578;2023-08-24T06:35:57;101576.19;;;21.08;100.00
69153;BME280;56261;51.580;4.578;2023-08-24T06:38:23;101575.16;;;21.27;100.00
69153;BME280;56261;51.580;4.578;2023-08-24T06:40:48;101556.25;;;21.46;100.00
69153;BME280;56261;51.580;4.578;2023-08-24T06:43:13;101553.53;;;21.64;100.00
69153;BME280;56261;51.580;4.578;2023-08-24T06:45:40;101544.31;;;21.65;100.00
69153;BME280;56261;51.580;4.578;2023-08-24T06:48:06;101549.16;;;21.82;100.00
69153;BME280;56261;51.580;4.578;2023-08-24T06:50:32;101552.16;;;21.73;100.00
69153;BME280;56261;51.580;4.578;2023-08-24T06:52:58;101546.44;;;21.63;100.00
69153;BME280;56261;51.580;4.578;2023-08-24T06:55:23;101540.91;;;22.07;100.00
69153;BME280;56261;51.580;4.578;2023-08-24T06:57:49;101535.25;;;22.38;100.00
69153;BME280;56261;51.580;4.578;2023-08-24T07:00:18;101533.44;;;22.63;100.00
69153;BME280;56261;51.580;4.578;2023-08-24T07:02:48;101544.41;;;22.56;100.00
69153;BME280;56261;51.580;4.578;2023-08-24T07:05:14;101551.88;;;22.61;100.00
69153;BME280;56261;51.580;4.578;2023-08-24T07:07:40;101551.88;;;22.61;100.00
69153;BME280;56261;51.580;4.578;2023-08-24T07:10:08;101545.91;;;22.82;100.00
69153;BME280;56261;51.580;4.578;2023-08-24T07:12:34;101543.19;;;22.82;100.00
69153;BME280;56261;51.580;4.578;2023-08-24T07:14:59;101541.75;;;22.79;100.00
69153;BME280;56261;51.580;4.578;2023-08-24T07:17:25;101553.50;;;23.04;100.00
69153;BME280;56261;51.580;4.578;2023-08-24T07:19:50;101549.81;;;23.57;100.00
69153;BME280;56261;51.580;4.578;2023-08-24T07:22:15;101555.44;;;24.02;100.00
69153;BME280;56261;51.580;4.578;2023-08-24T07:24:41;101546.19;;;24.03;100.00
69153;BME280;56261;51.580;4.578;2023-08-24T07:27:07;101559.41;;;23.83;100.00
69153;BME280;56261;51.580;4.578;2023-08-24T07:29:33;101559.41;;;23.59;100.00
69153;BME280;56261;51.580;4.578;2023-08-24T07:31:59;101563.78;;;23.72;100.00
69153;BME280;56261;51.580;4.578;2023-08-24T07:34:24;101555.03;;;23.58;100.00
69153;BME280;56261;51.580;4.578;2023-08-24T07:36:49;101559.78;;;23.63;100.00
69153;BME280;56261;51.580;4.578;2023-08-24T07:39:15;101554.34;;;23.51;100.00
69153;BME280;56261;51.580;4.578;2023-08-24T07:41:41;101557.84;;;22.81;100.00
69153;BME280;56261;51.580;4.578;2023-08-24T07:44:07;101569.50;;;23.00;100.00
69153;BME280;56261;51.580;4.578;2023-08-24T07:46:32;101562.16;;;23.00;100.00
69153;BME280;56261;51.580;4.578;2023-08-24T07:48:58;101550.94;;;23.09;100.00
69153;BME280;56261;51.580;4.578;2023-08-24T07:51:23;101538.84;;;23.05;100.00
69153;BME280;56261;51.580;4.578;2023-08-24T07:53:48;101535.75;;;23.13;100.00
69153;BME280;56261;51.580;4.578;2023-08-24T07:56:16;101528.69;;;23.35;100.00
69153;BME280;56261;51.580;4.578;2023-08-24T07:58:41;101522.38;;;23.35;100.00
69153;BME280;56261;51.580;4.578;2023-08-24T08:01:06;101520.03;;;23.38;100.00
69153;BME280;56261;51.580;4.578;2023-08-24T08:03:32;101520.03;;;23.38;100.00
69153;BME280;56261;51.580;4.578;2023-08-24T08:05:57;101505.34;;;23.51;100.00
69153;BME280;56261;51.580;4.578;2023-08-24T08:08:23;101504.63;;;23.32;100.00
69153;BME280;56261;51.580;4.578;2023-08-24T08:10:57;101516.81;;;23.41;100.00
69153;BME280;56261;51.580;4.578;2023-08-24T08:13:23;101510.78;;;23.51;100.00
69153;BME280;56261;51.580;4.578;2023-08-24T08:15:49;101510.50;;;23.76;100.00
69153;BME280;56261;51.580;4.578;2023-08-24T08:18:14;101519.50;;;23.77;100.00
69153;BME280;56261;51.580;4.578;2023-08-24T08:20:39;101512.16;;;23.66;100.00
69153;BME280;56261;51.580;4.578;2023-08-24T08:23:05;101505.97;;;23.82;100.00
69153;BME280;56261;51.580;4.578;2023-08-24T08:25:30;101515.22;;;23.81;100.00
69153;BME280;56261;51.580;4.578;2023-08-24T08:27:55;101507.34;;;23.96;100.00
69153;BME280;56261;51.580;4.578;2023-08-24T08:30:21;101512.22;;;23.94;100.00
69153;BME280;56261;51.580;4.578;2023-08-24T08:32:47;101508.03;;;24.03;100.00
69153;BME280;56261;51.580;4.578;2023-08-24T08:35:12;101508.38;;;24.07;100.00
69153;BME280;56261;51.580;4.578;2023-08-24T08:37:38;101505.16;;;24.10;100.00
69153;BME280;56261;51.580;4.578;2023-08-24T08:40:04;101492.28;;;24.06;100.00
69153;BME280;56261;51.580;4.578;2023-08-24T08:42:32;101493.34;;;24.05;100.00
69153;BME280;56261;51.580;4.578;2023-08-24T08:45:02;101476.88;;;24.28;100.00
69153;BME280;56261;51.580;4.578;2023-08-24T08:47:29;101462.41;;;24.28;100.00
69153;BME280;56261;51.580;4.578;2023-08-24T08:49:55;101447.53;;;24.18;100.00
69153;BME280;56261;51.580;4.578;2023-08-24T08:52:20;101449.34;;;24.13;100.00
69153;BME280;56261;51.580;4.578;2023-08-24T08:54:46;101443.44;;;24.04;100.00
69153;BME280;56261;51.580;4.578;2023-08-24T08:57:11;101437.09;;;23.98;100.00
69153;BME280;56261;51.580;4.578;2023-08-24T08:59:38;101439.72;;;23.53;100.00
69153;BME280;56261;51.580;4.578;2023-08-24T09:02:04;101447.69;;;23.42;100.00
69153;BME280;56261;51.580;4.578;2023-08-24T09:04:32;101444.34;;;23.52;100.00
69153;BME280;56261;51.580;4.578;2023-08-24T09:06:59;101438.38;;;23.67;100.00
69153;BME280;56261;51.580;4.578;2023-08-24T09:09:29;101427.50;;;23.67;100.00
69153;BME280;56261;51.580;4.578;2023-08-24T09:11:54;101420.41;;;23.54;100.00
69153;BME280;56261;51.580;4.578;2023-08-24T09:14:20;101423.28;;;23.48;100.00
69153;BME280;56261;51.580;4.578;2023-08-24T09:16:45;101415.31;;;23.58;100.00
69153;BME280;56261;51.580;4.578;2023-08-24T09:19:11;101425.94;;;23.71;100.00
69153;BME280;56261;51.580;4.578;2023-08-24T09:21:38;101424.78;;;23.96;100.00
69153;BME280;56261;51.580;4.578;2023-08-24T09:24:05;101422.72;;;24.03;100.00
69153;BME280;56261;51.580;4.578;2023-08-24T09:26:33;101432.22;;;24.17;100.00
69153;BME280;56261;51.580;4.578;2023-08-24T09:29:10;101438.94;;;24.27;100.00
69153;BME280;56261;51.580;4.578;2023-08-24T09:31:37;101448.69;;;24.39;100.00
69153;BME280;56261;51.580;4.578;2023-08-24T09:34:04;101473.16;;;24.34;100.00
69153;BME280;56261;51.580;4.578;2023-08-24T09:36:37;101484.06;;;24.34;100.00
69153;BME280;56261;51.580;4.578;2023-08-24T09:39:03;101500.19;;;24.36;100.00
69153;BME280;56261;51.580;4.578;2023-08-24T09:41:43;101508.25;;;24.31;100.00
69153;BME280;56261;51.580;4.578;2023-08-24T09:44:09;101531.09;;;24.13;100.00
69153;BME280;56261;51.580;4.578;2023-08-24T09:46:36;101545.16;;;23.93;100.00
69153;BME280;56261;51.580;4.578;2023-08-24T09:49:05;101559.66;;;23.58;100.00
69153;BME280;56261;51.580;4.578;2023-08-24T09:51:33;101580.75;;;23.15;100.00
69153;BME280;56261;51.580;4.578;2023-08-24T09:54:02;101584.53;;;23.38;100.00
69153;BME280;56261;51.580;4.578;2023-08-24T09:56:31;101570.22;;;23.19;100.00
69153;BME280;56261;51.580;4.578;2023-08-24T09:59:00;101570.16;;;22.95;100.00
69153;BME280;56261;51.580;4.578;2023-08-24T10:01:30;101571.63;;;23.21;100.00
69153;BME280;56261;51.580;4.578;2023-08-24T10:03:57;101561.31;;;23.24;100.00
69153;BME280;56261;51.580;4.578;2023-08-24T10:06:26;101570.09;;;23.14;100.00
69153;BME280;56261;51.580;4.578;2023-08-24T10:08:59;101567.13;;;23.39;100.00
69153;BME280;56261;51.580;4.578;2023-08-24T10:11:28;101545.59;;;23.49;100.00
69153;BME280;56261;51.580;4.578;2023-08-24T10:14:12;101536.94;;;23.52;100.00
69153;BME280;56261;51.580;4.578;2023-08-24T10:16:39;101547.25;;;23.38;100.00
69153;BME280;56261;51.580;4.578;2023-08-24T10:19:06;101526.03;;;23.52;100.00
69153;BME280;56261;51.580;4.578;2023-08-24T10:21:33;101533.63;;;23.50;100.00
69153;BME280;56261;51.580;4.578;2023-08-24T10:23:59;101515.03;;;23.47;100.00
69153;BME280;56261;51.580;4.578;2023-08-24T10:26:26;101516.81;;;23.41;100.00
69153;BME280;56261;51.580;4.578;2023-08-24T10:28:52;101500.47;;;23.41;100.00
69153;BME280;56261;51.580;4.578;2023-08-24T10:31:18;101493.16;;;23.42;100.00
69153;BME280;56261;51.580;4.578;2023-08-24T10:33:46;101491.13;;;23.37;100.00
69153;BME280;56261;51.580;4.578;2023-08-24T10:36:15;101484.41;;;23.28;100.00
69153;BME280;56261;51.580;4.578;2023-08-24T10:38:42;101469.34;;;23.37;100.00
69153;BME280;56261;51.580;4.578;2023-08-24T10:41:08;101463.22;;;23.30;100.00
69153;BME280;56261;51.580;4.578;2023-08-24T10:43:37;101458.28;;;23.15;100.00
69153;BME280;56261;51.580;4.578;2023-08-24T10:46:03;101446.69;;;23.20;100.00
69153;BME280;56261;51.580;4.578;2023-08-24T10:53:51;101420.91;;;23.51;100.00
69153;BME280;56261;51.580;4.578;2023-08-24T10:56:18;101421.53;;;23.41;100.00
69153;BME280;56261;51.580;4.578;2023-08-24T10:58:47;101414.44;;;23.40;100.00
69153;BME280;56261;51.580;4.578;2023-08-24T11:01:17;101443.97;;;23.49;100.00
69153;BME280;56261;51.580;4.578;2023-08-24T11:03:48;101449.44;;;23.49;100.00
69153;BME280;56261;51.580;4.578;2023-08-24T11:06:18;101419.47;;;23.49;100.00
69153;BME280;56261;51.580;4.578;2023-08-24T11:08:46;101418.47;;;23.38;100.00
69153;BME280;56261;51.580;4.578;2023-08-24T11:11:21;101404.31;;;23.53;100.00
69153;BME280;56261;51.580;4.578;2023-08-24T11:14:16;101399.97;;;23.69;100.00
69153;BME280;56261;51.580;4.578;2023-08-24T11:16:44;101371.84;;;23.92;100.00
69153;BME280;56261;51.580;4.578;2023-08-24T11:19:10;101354.53;;;23.69;100.00
69153;BME280;56261;51.580;4.578;2023-08-24T11:21:38;101349.00;;;23.35;100.00
69153;BME280;56261;51.580;4.578;2023-08-24T11:24:05;101336.97;;;23.19;100.00
69153;BME280;56261;51.580;4.578;2023-08-24T11:26:30;101331.22;;;22.92;100.00
69153;BME280;56261;51.580;4.578;2023-08-24T11:28:56;101310.16;;;22.88;100.00
69153;BME280;56261;51.580;4.578;2023-08-24T11:31:23;101303.28;;;23.09;100.00
69153;BME280;56261;51.580;4.578;2023-08-24T11:33:54;101309.06;;;23.41;100.00
69153;BME280;56261;51.580;4.578;2023-08-24T11:36:20;101301.63;;;23.36;100.00
69153;BME280;56261;51.580;4.578;2023-08-24T11:38:46;101288.78;;;23.49;100.00
69153;BME280;56261;51.580;4.578;2023-08-24T11:41:17;101294.00;;;23.50;100.00
69153;BME280;56261;51.580;4.578;2023-08-24T11:43:44;101295.72;;;23.85;100.00
69153;BME280;56261;51.580;4.578;2023-08-24T11:46:10;101288.50;;;24.13;100.00
69153;BME280;56261;51.580;4.578;2023-08-24T11:48:35;101289.19;;;24.03;100.00
69153;BME280;56261;51.580;4.578;2023-08-24T11:51:02;101292.56;;;24.27;100.00
69153;BME280;56261;51.580;4.578;2023-08-24T11:53:28;101287.63;;;24.46;100.00
69153;BME280;56261;51.580;4.578;2023-08-24T11:55:57;101299.00;;;24.77;100.00
69153;BME280;56261;51.580;4.578;2023-08-24T11:58:22;101312.25;;;24.90;100.00
69153;BME280;56261;51.580;4.578;2023-08-24T12:00:48;101332.03;;;25.02;100.00
69153;BME280;56261;51.580;4.578;2023-08-24T12:03:14;101340.81;;;25.26;100.00
69153;BME280;56261;51.580;4.578;2023-08-24T12:05:39;101346.41;;;25.37;100.00
69153;BME280;56261;51.580;4.578;2023-08-24T12:08:05;101347.59;;;25.73;100.00
69153;BME280;56261;51.580;4.578;2023-08-24T12:10:31;101344.50;;;25.92;100.00
69153;BME280;56261;51.580;4.578;2023-08-24T12:13:06;101323.34;;;26.14;100.00
69153;BME280;56261;51.580;4.578;2023-08-24T12:15:35;101322.66;;;26.34;100.00
69153;BME280;56261;51.580;4.578;2023-08-24T12:18:12;101332.19;;;26.21;100.00
69153;BME280;56261;51.580;4.578;2023-08-24T12:20:39;101320.03;;;26.07;100.00
69153;BME280;56261;51.580;4.578;2023-08-24T12:23:06;101316.28;;;26.18;100.00
69153;BME280;56261;51.580;4.578;2023-08-24T12:25:36;101310.97;;;25.74;100.00
69153;BME280;56261;51.580;4.578;2023-08-24T12:28:14;101315.53;;;25.63;100.00
69153;BME280;56261;51.580;4.578;2023-08-24T12:33:23;101306.06;;;25.44;100.00
69153;BME280;56261;51.580;4.578;2023-08-24T12:35:49;101305.38;;;25.59;100.00
69153;BME280;56261;51.580;4.578;2023-08-24T12:38:14;101307.81;;;25.55;100.00
69153;BME280;56261;51.580;4.578;2023-08-24T12:40:40;101301.97;;;25.46;100.00
69153;BME280;56261;51.580;4.578;2023-08-24T12:43:05;101303.16;;;25.56;100.00
69153;BME280;56261;51.580;4.578;2023-08-24T12:45:32;101304.28;;;25.60;100.00
69153;BME280;56261;51.580;4.578;2023-08-24T12:47:57;101294.78;;;25.67;100.00
69153;BME280;56261;51.580;4.578;2023-08-24T12:50:23;101297.88;;;25.76;100.00